Pagina principale
METAR-TAF:

METAR-TAF

Aeroporti :

Isola de Providencia, Colombia

latitudine: 13-22N, longitudine: 081-21W, altezza: 6 m

Osservazione

Il bollettino è stato emesso 1 ora e 12 minuti fa, alle 14:00 UTC
Vento 4 kt da direzioni variabili
Temperature 32°C
Umidità 79%
Pressione 1011 hPa
Visibilità 10 km o più
Poco nuvoloso ad un'altezza di 1700 ft

METAR: SKPV 221400Z VRB04KT 9999 FEW017 32/28 Q1011

Ora: 10:12 (15:12 UTC)


TAF: mancante

Osservazioni e previsioni meteorologiche di più di 4000 aeroporti (messaggi METAR e TAF).

Le stazioni disponibili sono rappresentate dai dischi gialli e rossi sulla carta.

Puntare il mouse per vedere il nome della stazione.

Clicca sopra per visualizzare le osservazioni e previsioni meteorologiche.

Per cambiare la mappa : fare clic sui pulsanti verdi con una croce nera per ingrandire, il pulsante verde con un trattino per diminuire, o sulla freccia verde per le mappe adiacenti.


METAR-TAF: